Terminal Aerodrome Forecast
Issued by NWS

Home | Current Version | Previous Version | Text Only | Print | Product List | Glossary On
Versions: 1 2 3 4 5 6 7 8 9 10 11 12 13 14 15 16 17 18 19 20 21 22 23 24 25 26
000
FTUS45 KGGW 271130
TAFGDV
TAF
KGDV 271130Z 2712/2812 05008KT 3SM -SN OVC025
      TEMPO 2712/2714 1SM -SN BKN014 OVC020
     FM272300 04011KT P6SM VCSH BKN035
     FM280700 05006KT P6SM BKN010=

USA.gov is the U.S. government's official web portal to all federal, state and local government web resources and services.